sensor_id;sensor_type;location;lat;lon;timestamp;pressure;altitude;pressure_sealevel;temperature;humidity
59391;BME280;53405;57.012;40.984;2023-02-17T00:01:51;101038.81;;;-7.71;86.01
59391;BME280;53405;57.012;40.984;2023-02-17T00:04:39;101041.56;;;-7.80;86.00
59391;BME280;53405;57.012;40.984;2023-02-17T00:07:26;101024.88;;;-7.96;86.02
59391;BME280;53405;57.012;40.984;2023-02-17T00:10:18;101056.19;;;-7.87;86.38
59391;BME280;53405;57.012;40.984;2023-02-17T00:13:05;101044.50;;;-7.97;86.45
59391;BME280;53405;57.012;40.984;2023-02-17T00:15:53;101042.03;;;-8.02;86.47
59391;BME280;53405;57.012;40.984;2023-02-17T00:18:41;101049.75;;;-8.03;86.69
59391;BME280;53405;57.012;40.984;2023-02-17T00:21:29;101061.63;;;-8.01;87.03
59391;BME280;53405;57.012;40.984;2023-02-17T00:24:17;101065.06;;;-8.02;86.99
59391;BME280;53405;57.012;40.984;2023-02-17T00:27:05;101060.75;;;-8.00;86.97
59391;BME280;53405;57.012;40.984;2023-02-17T00:29:53;101053.94;;;-7.99;86.70
59391;BME280;53405;57.012;40.984;2023-02-17T00:32:40;101051.41;;;-8.01;87.00
59391;BME280;53405;57.012;40.984;2023-02-17T00:35:28;101051.25;;;-7.93;86.82
59391;BME280;53405;57.012;40.984;2023-02-17T00:38:15;101041.91;;;-7.95;86.73
59391;BME280;53405;57.012;40.984;2023-02-17T00:41:03;101047.59;;;-7.83;86.84
59391;BME280;53405;57.012;40.984;2023-02-17T00:43:51;101043.13;;;-7.74;86.26
59391;BME280;53405;57.012;40.984;2023-02-17T00:46:40;101050.59;;;-7.65;86.20
59391;BME280;53405;57.012;40.984;2023-02-17T00:49:28;101041.38;;;-7.71;85.52
59391;BME280;53405;57.012;40.984;2023-02-17T00:52:16;101045.59;;;-7.70;85.51
59391;BME280;53405;57.012;40.984;2023-02-17T00:55:04;101051.66;;;-7.74;85.40
59391;BME280;53405;57.012;40.984;2023-02-17T00:57:52;101047.47;;;-7.78;85.72
59391;BME280;53405;57.012;40.984;2023-02-17T01:00:39;101039.81;;;-7.78;86.06
59391;BME280;53405;57.012;40.984;2023-02-17T01:03:27;101037.31;;;-7.81;85.80
59391;BME280;53405;57.012;40.984;2023-02-17T01:06:24;101032.97;;;-7.77;85.93
59391;BME280;53405;57.012;40.984;2023-02-17T01:09:13;101043.72;;;-7.63;85.83
59391;BME280;53405;57.012;40.984;2023-02-17T01:12:00;101044.34;;;-7.53;85.99
59391;BME280;53405;57.012;40.984;2023-02-17T01:14:50;101041.81;;;-7.53;85.10
59391;BME280;53405;57.012;40.984;2023-02-17T01:17:37;101049.63;;;-7.59;85.19
59391;BME280;53405;57.012;40.984;2023-02-17T01:20:25;101048.00;;;-7.64;85.33
59391;BME280;53405;57.012;40.984;2023-02-17T01:23:14;101036.06;;;-7.65;85.52
59391;BME280;53405;57.012;40.984;2023-02-17T01:26:01;101026.94;;;-7.75;85.57
59391;BME280;53405;57.012;40.984;2023-02-17T01:28:50;101030.97;;;-7.65;85.55
59391;BME280;53405;57.012;40.984;2023-02-17T01:31:39;101038.56;;;-7.62;85.53
59391;BME280;53405;57.012;40.984;2023-02-17T01:34:30;101036.66;;;-7.52;85.66
59391;BME280;53405;57.012;40.984;2023-02-17T01:37:18;101034.09;;;-7.52;85.10
59391;BME280;53405;57.012;40.984;2023-02-17T01:40:06;101023.13;;;-7.58;85.04
59391;BME280;53405;57.012;40.984;2023-02-17T01:42:54;101025.94;;;-7.68;84.86
59391;BME280;53405;57.012;40.984;2023-02-17T01:45:51;101034.53;;;-7.70;84.93
59391;BME280;53405;57.012;40.984;2023-02-17T01:48:43;101036.38;;;-7.77;84.73
59391;BME280;53405;57.012;40.984;2023-02-17T01:51:35;101035.63;;;-7.82;85.20
59391;BME280;53405;57.012;40.984;2023-02-17T01:54:49;101027.28;;;-7.90;85.31
59391;BME280;53405;57.012;40.984;2023-02-17T01:57:39;101018.94;;;-7.97;85.58
59391;BME280;53405;57.012;40.984;2023-02-17T02:00:28;101048.47;;;-7.85;85.29
59391;BME280;53405;57.012;40.984;2023-02-17T02:03:18;101040.03;;;-7.89;85.37
59391;BME280;53405;57.012;40.984;2023-02-17T02:06:08;101036.59;;;-7.86;85.13
59391;BME280;53405;57.012;40.984;2023-02-17T02:09:05;101047.59;;;-7.83;85.24
59391;BME280;53405;57.012;40.984;2023-02-17T02:11:53;101043.31;;;-7.82;84.92
59391;BME280;53405;57.012;40.984;2023-02-17T02:14:41;101048.19;;;-7.71;85.21
59391;BME280;53405;57.012;40.984;2023-02-17T02:33:56;101045.63;;;-7.71;84.42
59391;BME280;53405;57.012;40.984;2023-02-17T02:37:28;101039.84;;;-7.79;84.01
59391;BME280;53405;57.012;40.984;2023-02-17T02:40:15;101029.22;;;-8.00;84.32
59391;BME280;53405;57.012;40.984;2023-02-17T02:43:06;101043.78;;;-8.02;85.11
59391;BME280;53405;57.012;40.984;2023-02-17T02:45:54;101056.56;;;-8.02;85.04
59391;BME280;53405;57.012;40.984;2023-02-17T02:48:42;101039.50;;;-8.02;85.34
59391;BME280;53405;57.012;40.984;2023-02-17T02:52:12;101049.56;;;-7.94;85.17
59391;BME280;53405;57.012;40.984;2023-02-17T02:55:15;101045.22;;;-7.92;85.12
59391;BME280;53405;57.012;40.984;2023-02-17T03:01:11;101038.44;;;-7.93;85.16
59391;BME280;53405;57.012;40.984;2023-02-17T03:10:27;101028.91;;;-7.86;85.24
59391;BME280;53405;57.012;40.984;2023-02-17T03:13:15;101029.78;;;-7.87;84.79
59391;BME280;53405;57.012;40.984;2023-02-17T03:16:05;101034.88;;;-7.86;85.19
59391;BME280;53405;57.012;40.984;2023-02-17T03:18:53;101037.38;;;-7.84;84.87
59391;BME280;53405;57.012;40.984;2023-02-17T03:21:56;101039.25;;;-7.91;84.46
59391;BME280;53405;57.012;40.984;2023-02-17T03:24:45;101046.13;;;-7.93;84.61
59391;BME280;53405;57.012;40.984;2023-02-17T03:27:33;101022.56;;;-8.07;84.87
59391;BME280;53405;57.012;40.984;2023-02-17T03:30:20;101047.91;;;-7.98;84.90
59391;BME280;53405;57.012;40.984;2023-02-17T03:33:08;101039.38;;;-7.97;85.38
59391;BME280;53405;57.012;40.984;2023-02-17T03:35:57;101041.88;;;-7.94;85.09
59391;BME280;53405;57.012;40.984;2023-02-17T03:38:44;101038.44;;;-7.93;85.15
59391;BME280;53405;57.012;40.984;2023-02-17T03:41:32;101044.34;;;-7.89;85.02
59391;BME280;53405;57.012;40.984;2023-02-17T03:44:19;101041.78;;;-7.89;84.93
59391;BME280;53405;57.012;40.984;2023-02-17T03:47:07;101045.19;;;-7.90;84.93
59391;BME280;53405;57.012;40.984;2023-02-17T03:49:54;101038.31;;;-7.88;85.15
59391;BME280;53405;57.012;40.984;2023-02-17T03:52:42;101036.63;;;-7.88;84.83
59391;BME280;53405;57.012;40.984;2023-02-17T03:55:29;101034.09;;;-7.89;84.61
59391;BME280;53405;57.012;40.984;2023-02-17T03:58:17;101025.66;;;-7.93;84.99
59391;BME280;53405;57.012;40.984;2023-02-17T04:01:05;101034.13;;;-7.91;84.83
59391;BME280;53405;57.012;40.984;2023-02-17T04:03:53;101019.78;;;-7.98;84.85
59391;BME280;53405;57.012;40.984;2023-02-17T04:06:41;101023.19;;;-7.96;84.92
59391;BME280;53405;57.012;40.984;2023-02-17T04:09:29;101023.97;;;-7.94;85.20
59391;BME280;53405;57.012;40.984;2023-02-17T04:12:17;101028.09;;;-7.88;84.72
59391;BME280;53405;57.012;40.984;2023-02-17T04:15:04;101020.59;;;-7.94;84.90
59391;BME280;53405;57.012;40.984;2023-02-17T04:17:52;100986.25;;;-8.23;84.72
59391;BME280;53405;57.012;40.984;2023-02-17T04:20:40;101035.94;;;-7.94;84.83
59391;BME280;53405;57.012;40.984;2023-02-17T04:23:27;101044.47;;;-7.95;84.67
59391;BME280;53405;57.012;40.984;2023-02-17T04:26:15;101049.38;;;-7.86;85.15
59391;BME280;53405;57.012;40.984;2023-02-17T04:29:04;101039.03;;;-7.82;84.73
59391;BME280;53405;57.012;40.984;2023-02-17T04:31:52;101038.25;;;-7.85;84.33
59391;BME280;53405;57.012;40.984;2023-02-17T04:34:39;101048.50;;;-7.87;84.21
59391;BME280;53405;57.012;40.984;2023-02-17T04:37:27;101020.84;;;-8.07;84.35
59391;BME280;53405;57.012;40.984;2023-02-17T04:40:15;101047.78;;;-7.92;84.68
59391;BME280;53405;57.012;40.984;2023-02-17T04:43:03;101046.09;;;-7.91;84.33
59391;BME280;53405;57.012;40.984;2023-02-17T04:45:51;101050.34;;;-7.92;84.67
59391;BME280;53405;57.012;40.984;2023-02-17T04:48:39;101055.34;;;-7.87;84.63
59391;BME280;53405;57.012;40.984;2023-02-17T04:51:26;101054.50;;;-7.86;84.31
59391;BME280;53405;57.012;40.984;2023-02-17T04:54:14;101054.53;;;-7.88;84.51
59391;BME280;53405;57.012;40.984;2023-02-17T04:57:01;101067.16;;;-7.80;84.58
59391;BME280;53405;57.012;40.984;2023-02-17T04:59:49;101011.50;;;-8.08;84.33
59391;BME280;53405;57.012;40.984;2023-02-17T05:02:36;101060.44;;;-7.86;84.54
59391;BME280;53405;57.012;40.984;2023-02-17T05:05:24;101064.78;;;-7.89;84.36
59391;BME280;53405;57.012;40.984;2023-02-17T05:08:12;101058.78;;;-7.88;84.54
59391;BME280;53405;57.012;40.984;2023-02-17T05:10:59;101060.31;;;-7.79;84.61
59391;BME280;53405;57.012;40.984;2023-02-17T05:13:47;101052.72;;;-7.84;84.47
59391;BME280;53405;57.012;40.984;2023-02-17T05:16:35;101041.13;;;-7.97;84.78
59391;BME280;53405;57.012;40.984;2023-02-17T05:19:22;101060.44;;;-7.86;84.46
59391;BME280;53405;57.012;40.984;2023-02-17T05:22:10;101042.66;;;-7.92;84.83
59391;BME280;53405;57.012;40.984;2023-02-17T05:24:57;101058.44;;;-7.73;84.78
59391;BME280;53405;57.012;40.984;2023-02-17T05:27:45;101053.09;;;-7.62;84.73
59391;BME280;53405;57.012;40.984;2023-02-17T05:30:32;101058.00;;;-7.53;84.53
59391;BME280;53405;57.012;40.984;2023-02-17T05:33:20;101056.94;;;-7.44;84.06
59391;BME280;53405;57.012;40.984;2023-02-17T05:36:09;101049.25;;;-7.44;83.79
59391;BME280;53405;57.012;40.984;2023-02-17T05:38:57;101050.16;;;-7.47;83.79
59391;BME280;53405;57.012;40.984;2023-02-17T05:41:44;101047.53;;;-7.43;84.14
59391;BME280;53405;57.012;40.984;2023-02-17T05:44:32;101046.81;;;-7.49;84.01
59391;BME280;53405;57.012;40.984;2023-02-17T05:47:20;101053.34;;;-7.37;83.77
59391;BME280;53405;57.012;40.984;2023-02-17T05:50:08;101047.44;;;-7.39;83.98
59391;BME280;53405;57.012;40.984;2023-02-17T05:52:56;101055.94;;;-7.38;83.45
59391;BME280;53405;57.012;40.984;2023-02-17T05:55:44;101028.78;;;-7.44;83.48
59391;BME280;53405;57.012;40.984;2023-02-17T05:58:32;101051.53;;;-7.33;83.28
59391;BME280;53405;57.012;40.984;2023-02-17T06:01:20;101053.19;;;-7.31;83.16
59391;BME280;53405;57.012;40.984;2023-02-17T06:04:08;101059.19;;;-7.32;83.66
59391;BME280;53405;57.012;40.984;2023-02-17T06:06:56;101065.09;;;-7.28;83.89
59391;BME280;53405;57.012;40.984;2023-02-17T06:09:45;101063.88;;;-7.15;83.73
59391;BME280;53405;57.012;40.984;2023-02-17T06:12:33;101071.50;;;-7.12;83.46
59391;BME280;53405;57.012;40.984;2023-02-17T06:15:21;101055.09;;;-7.04;83.50
59391;BME280;53405;57.012;40.984;2023-02-17T06:18:09;101071.38;;;-6.74;83.41
59391;BME280;53405;57.012;40.984;2023-02-17T06:20:57;101071.78;;;-6.57;82.56
59391;BME280;53405;57.012;40.984;2023-02-17T06:23:45;101083.59;;;-6.51;81.84
59391;BME280;53405;57.012;40.984;2023-02-17T06:26:33;101082.44;;;-6.41;81.62
59391;BME280;53405;57.012;40.984;2023-02-17T06:29:21;101073.84;;;-6.38;81.63
59391;BME280;53405;57.012;40.984;2023-02-17T06:32:09;101059.56;;;-6.48;81.11
59391;BME280;53405;57.012;40.984;2023-02-17T06:34:56;101083.84;;;-6.29;80.69
59391;BME280;53405;57.012;40.984;2023-02-17T06:37:44;101087.78;;;-6.19;80.76
59391;BME280;53405;57.012;40.984;2023-02-17T06:40:31;101080.63;;;-6.07;80.13
59391;BME280;53405;57.012;40.984;2023-02-17T06:43:19;101080.41;;;-6.00;79.89
59391;BME280;53405;57.012;40.984;2023-02-17T06:46:07;101089.63;;;-5.94;79.88
59391;BME280;53405;57.012;40.984;2023-02-17T06:48:55;101086.44;;;-6.01;79.82
59391;BME280;53405;57.012;40.984;2023-02-17T06:51:42;101086.16;;;-5.93;79.28
59391;BME280;53405;57.012;40.984;2023-02-17T06:54:30;101089.44;;;-5.88;79.08
59391;BME280;53405;57.012;40.984;2023-02-17T06:57:18;101086.75;;;-5.83;79.78
59391;BME280;53405;57.012;40.984;2023-02-17T07:00:06;101073.69;;;-5.75;79.01
59391;BME280;53405;57.012;40.984;2023-02-17T07:02:54;101080.94;;;-5.62;78.41
59391;BME280;53405;57.012;40.984;2023-02-17T07:05:41;101090.09;;;-5.53;78.29
59391;BME280;53405;57.012;40.984;2023-02-17T07:08:29;101078.28;;;-5.58;77.87
59391;BME280;53405;57.012;40.984;2023-02-17T07:11:18;101072.34;;;-5.60;78.46
59391;BME280;53405;57.012;40.984;2023-02-17T07:14:06;101081.78;;;-5.61;79.62
59391;BME280;53405;57.012;40.984;2023-02-17T07:16:54;101080.94;;;-5.35;77.99
59391;BME280;53405;57.012;40.984;2023-02-17T07:19:41;101069.84;;;-5.35;76.89
59391;BME280;53405;57.012;40.984;2023-02-17T07:22:29;101073.25;;;-5.35;78.14
59391;BME280;53405;57.012;40.984;2023-02-17T07:25:16;101078.38;;;-5.08;77.38
59391;BME280;53405;57.012;40.984;2023-02-17T07:28:04;101068.66;;;-5.00;77.20
59391;BME280;53405;57.012;40.984;2023-02-17T07:30:54;101068.53;;;-4.95;76.38
59391;BME280;53405;57.012;40.984;2023-02-17T07:33:42;101060.97;;;-5.00;77.61
59391;BME280;53405;57.012;40.984;2023-02-17T07:36:31;101056.03;;;-5.31;78.90
59391;BME280;53405;57.012;40.984;2023-02-17T07:39:19;101071.47;;;-5.06;78.48
59391;BME280;53405;57.012;40.984;2023-02-17T07:42:06;101063.97;;;-5.12;78.67
59391;BME280;53405;57.012;40.984;2023-02-17T07:44:54;101062.91;;;-4.81;76.85
59391;BME280;53405;57.012;40.984;2023-02-17T07:47:41;101056.47;;;-4.68;76.79
59391;BME280;53405;57.012;40.984;2023-02-17T07:50:29;101072.97;;;-4.50;76.03
59391;BME280;53405;57.012;40.984;2023-02-17T07:53:16;101070.44;;;-4.51;77.31
59391;BME280;53405;57.012;40.984;2023-02-17T07:56:06;101058.13;;;-4.43;76.36
59391;BME280;53405;57.012;40.984;2023-02-17T07:58:54;101066.47;;;-4.13;75.95
59391;BME280;53405;57.012;40.984;2023-02-17T08:01:42;101067.81;;;-4.03;75.09
59391;BME280;53405;57.012;40.984;2023-02-17T08:04:30;101074.94;;;-4.33;74.81
59391;BME280;53405;57.012;40.984;2023-02-17T08:07:19;101075.84;;;-4.59;75.32
59391;BME280;53405;57.012;40.984;2023-02-17T08:10:07;101065.63;;;-4.86;76.19
59391;BME280;53405;57.012;40.984;2023-02-17T08:13:26;101077.19;;;-4.98;77.14
59391;BME280;53405;57.012;40.984;2023-02-17T08:16:14;101074.28;;;-5.14;77.78
59391;BME280;53405;57.012;40.984;2023-02-17T08:19:02;101079.38;;;-5.12;78.59
59391;BME280;53405;57.012;40.984;2023-02-17T08:21:49;101068.31;;;-4.89;78.46
59391;BME280;53405;57.012;40.984;2023-02-17T08:24:37;101077.97;;;-4.70;78.42
59391;BME280;53405;57.012;40.984;2023-02-17T08:27:25;101065.50;;;-4.58;77.31
59391;BME280;53405;57.012;40.984;2023-02-17T08:30:12;101072.34;;;-4.57;76.37
59391;BME280;53405;57.012;40.984;2023-02-17T08:33:00;101069.66;;;-4.54;76.55
59391;BME280;53405;57.012;40.984;2023-02-17T08:35:48;101070.50;;;-4.53;76.58
59391;BME280;53405;57.012;40.984;2023-02-17T08:38:39;101067.47;;;-4.64;77.33
59391;BME280;53405;57.012;40.984;2023-02-17T08:41:30;101057.41;;;-4.70;77.17
59391;BME280;53405;57.012;40.984;2023-02-17T08:44:19;101063.38;;;-4.70;77.18
59391;BME280;53405;57.012;40.984;2023-02-17T08:47:10;101053.91;;;-4.68;77.02
59391;BME280;53405;57.012;40.984;2023-02-17T08:49:57;101066.03;;;-4.48;77.52
59391;BME280;53405;57.012;40.984;2023-02-17T08:52:45;101050.94;;;-4.33;76.44
59391;BME280;53405;57.012;40.984;2023-02-17T08:55:34;101044.06;;;-4.33;76.49
59391;BME280;53405;57.012;40.984;2023-02-17T08:58:34;101045.91;;;-4.13;76.70
59391;BME280;53405;57.012;40.984;2023-02-17T09:01:22;101028.13;;;-3.97;75.71
59391;BME280;53405;57.012;40.984;2023-02-17T09:04:12;101038.97;;;-3.67;75.68
59391;BME280;53405;57.012;40.984;2023-02-17T09:07:00;101040.50;;;-3.40;74.59
59391;BME280;53405;57.012;40.984;2023-02-17T09:09:48;101037.53;;;-3.31;74.46
59391;BME280;53405;57.012;40.984;2023-02-17T09:12:36;101032.13;;;-3.25;73.73
59391;BME280;53405;57.012;40.984;2023-02-17T09:15:23;101027.16;;;-3.30;74.89
59391;BME280;53405;57.012;40.984;2023-02-17T09:18:11;101029.72;;;-3.30;75.36
59391;BME280;53405;57.012;40.984;2023-02-17T09:21:03;101021.63;;;-3.00;73.25
59391;BME280;53405;57.012;40.984;2023-02-17T09:23:51;101021.56;;;-2.98;72.69
59391;BME280;53405;57.012;40.984;2023-02-17T09:26:40;101018.78;;;-2.94;71.79
59391;BME280;53405;57.012;40.984;2023-02-17T09:34:43;100999.78;;;-2.91;72.81
59391;BME280;53405;57.012;40.984;2023-02-17T09:37:39;101021.19;;;-2.70;71.51
59391;BME280;53405;57.012;40.984;2023-02-17T09:40:47;100982.00;;;-2.97;70.67
59391;BME280;53405;57.012;40.984;2023-02-17T09:43:35;101001.38;;;-3.09;70.86
59391;BME280;53405;57.012;40.984;2023-02-17T09:46:32;101004.69;;;-3.05;71.71
59391;BME280;53405;57.012;40.984;2023-02-17T09:49:25;100988.50;;;-3.09;71.62
59391;BME280;53405;57.012;40.984;2023-02-17T09:52:25;101002.75;;;-3.00;71.68
59391;BME280;53405;57.012;40.984;2023-02-17T09:55:17;100998.81;;;-2.88;70.96
59391;BME280;53405;57.012;40.984;2023-02-17T10:01:02;101001.38;;;-3.09;71.85
59391;BME280;53405;57.012;40.984;2023-02-17T10:04:01;100981.00;;;-3.14;71.22
59391;BME280;53405;57.012;40.984;2023-02-17T10:10:10;100986.53;;;-3.23;71.91
59391;BME280;53405;57.012;40.984;2023-02-17T10:13:03;100982.03;;;-3.38;72.21
59391;BME280;53405;57.012;40.984;2023-02-17T10:15:52;100975.31;;;-3.22;72.46
59391;BME280;53405;57.012;40.984;2023-02-17T10:18:48;100954.38;;;-3.14;72.21
59391;BME280;53405;57.012;40.984;2023-02-17T10:21:56;100968.59;;;-3.05;71.52
59391;BME280;53405;57.012;40.984;2023-02-17T10:24:45;100963.31;;;-3.02;71.51
59391;BME280;53405;57.012;40.984;2023-02-17T10:27:40;100964.50;;;-2.91;73.06
59391;BME280;53405;57.012;40.984;2023-02-17T10:31:03;100960.38;;;-2.74;71.00
59391;BME280;53405;57.012;40.984;2023-02-17T10:34:04;100962.88;;;-2.73;70.96
59391;BME280;53405;57.012;40.984;2023-02-17T10:40:33;100950.94;;;-2.94;71.07
59391;BME280;53405;57.012;40.984;2023-02-17T10:43:24;100953.44;;;-2.93;71.57
59391;BME280;53405;57.012;40.984;2023-02-17T10:46:16;100951.69;;;-2.92;72.75
59391;BME280;53405;57.012;40.984;2023-02-17T10:49:13;100943.69;;;-2.67;71.51
59391;BME280;53405;57.012;40.984;2023-02-17T10:52:13;100950.41;;;-2.63;70.26
59391;BME280;53405;57.012;40.984;2023-02-17T10:55:30;100935.75;;;-2.62;70.46
59391;BME280;53405;57.012;40.984;2023-02-17T10:58:34;100936.94;;;-2.50;70.29
59391;BME280;53405;57.012;40.984;2023-02-17T11:01:24;100936.53;;;-2.41;71.38
59391;BME280;53405;57.012;40.984;2023-02-17T11:04:11;100933.16;;;-2.43;71.25
59391;BME280;53405;57.012;40.984;2023-02-17T11:07:02;100931.00;;;-2.52;72.23
59391;BME280;53405;57.012;40.984;2023-02-17T11:09:53;100931.28;;;-2.59;72.24
59391;BME280;53405;57.012;40.984;2023-02-17T11:12:45;100932.25;;;-2.42;72.71
59391;BME280;53405;57.012;40.984;2023-02-17T11:15:43;100928.53;;;-2.17;70.51
59391;BME280;53405;57.012;40.984;2023-02-17T11:18:34;100914.56;;;-2.13;69.70
59391;BME280;53405;57.012;40.984;2023-02-17T11:21:27;100922.69;;;-1.86;68.94
59391;BME280;53405;57.012;40.984;2023-02-17T11:24:15;100928.50;;;-1.64;67.40
59391;BME280;53405;57.012;40.984;2023-02-17T11:27:07;100922.78;;;-1.53;67.33
59391;BME280;53405;57.012;40.984;2023-02-17T11:30:14;100913.72;;;-1.44;67.04
59391;BME280;53405;57.012;40.984;2023-02-17T11:33:18;100913.19;;;-0.68;65.35
59391;BME280;53405;57.012;40.984;2023-02-17T11:36:07;100913.13;;;-0.34;63.57
59391;BME280;53405;57.012;40.984;2023-02-17T11:39:15;100901.84;;;-0.33;62.67
59391;BME280;53405;57.012;40.984;2023-02-17T11:42:28;100907.41;;;-0.09;63.19
59391;BME280;53405;57.012;40.984;2023-02-17T11:45:17;100891.53;;;-0.19;61.75
59391;BME280;53405;57.012;40.984;2023-02-17T11:48:31;100903.13;;;-0.41;62.65
59391;BME280;53405;57.012;40.984;2023-02-17T11:58:07;100899.34;;;-0.35;62.93
59391;BME280;53405;57.012;40.984;2023-02-17T12:20:02;100890.28;;;0.92;61.26
59391;BME280;53405;57.012;40.984;2023-02-17T12:23:12;100892.50;;;0.98;60.08
59391;BME280;53405;57.012;40.984;2023-02-17T12:29:29;100885.63;;;0.97;59.64
59391;BME280;53405;57.012;40.984;2023-02-17T12:35:48;100884.72;;;0.84;60.92
59391;BME280;53405;57.012;40.984;2023-02-17T12:38:59;100886.75;;;0.79;60.39
59391;BME280;53405;57.012;40.984;2023-02-17T12:41:53;100880.47;;;0.54;61.80
59391;BME280;53405;57.012;40.984;2023-02-17T12:44:50;100876.34;;;0.35;61.33
59391;BME280;53405;57.012;40.984;2023-02-17T12:47:56;100861.22;;;0.13;61.51
59391;BME280;53405;57.012;40.984;2023-02-17T12:51:14;100876.47;;;0.04;62.61
59391;BME280;53405;57.012;40.984;2023-02-17T12:54:14;100864.00;;;-0.20;63.33
59391;BME280;53405;57.012;40.984;2023-02-17T12:59:51;100858.34;;;-0.43;64.33
59391;BME280;53405;57.012;40.984;2023-02-17T13:02:39;100863.28;;;-0.38;63.72
59391;BME280;53405;57.012;40.984;2023-02-17T13:05:41;100852.44;;;-0.45;64.94
59391;BME280;53405;57.012;40.984;2023-02-17T13:08:55;100850.75;;;-0.46;64.27
59391;BME280;53405;57.012;40.984;2023-02-17T13:11:44;100849.94;;;-0.62;64.40
59391;BME280;53405;57.012;40.984;2023-02-17T13:14:40;100851.28;;;-0.71;64.85
59391;BME280;53405;57.012;40.984;2023-02-17T13:17:38;100847.22;;;-0.75;65.21
59391;BME280;53405;57.012;40.984;2023-02-17T13:20:37;100842.63;;;-0.86;65.83
59391;BME280;53405;57.012;40.984;2023-02-17T13:23:32;100846.47;;;-0.77;66.07
59391;BME280;53405;57.012;40.984;2023-02-17T13:32:12;100836.56;;;-1.34;67.06
59391;BME280;53405;57.012;40.984;2023-02-17T13:37:51;100841.06;;;-1.38;67.12
59391;BME280;53405;57.012;40.984;2023-02-17T13:40:41;100827.69;;;-1.62;67.11
59391;BME280;53405;57.012;40.984;2023-02-17T13:43:29;100849.09;;;-1.60;67.72
59391;BME280;53405;57.012;40.984;2023-02-17T13:46:23;100853.44;;;-1.60;67.71
59391;BME280;53405;57.012;40.984;2023-02-17T13:49:20;100850.63;;;-1.73;68.27
59391;BME280;53405;57.012;40.984;2023-02-17T13:52:21;100845.94;;;-1.83;68.97
59391;BME280;53405;57.012;40.984;2023-02-17T13:55:18;100838.06;;;-1.97;69.58
59391;BME280;53405;57.012;40.984;2023-02-17T13:58:08;100836.97;;;-1.93;68.74
59391;BME280;53405;57.012;40.984;2023-02-17T14:00:57;100839.94;;;-2.01;70.35
59391;BME280;53405;57.012;40.984;2023-02-17T14:06:38;100835.63;;;-2.17;70.06
59391;BME280;53405;57.012;40.984;2023-02-17T14:09:32;100817.44;;;-2.33;69.84
59391;BME280;53405;57.012;40.984;2023-02-17T14:12:22;100825.97;;;-2.31;70.08
59391;BME280;53405;57.012;40.984;2023-02-17T14:15:15;100815.41;;;-2.44;71.08
59391;BME280;53405;57.012;40.984;2023-02-17T14:18:14;100829.38;;;-2.31;70.70
59391;BME280;53405;57.012;40.984;2023-02-17T14:23:54;100821.84;;;-2.53;72.03
59391;BME280;53405;57.012;40.984;2023-02-17T14:26:45;100826.91;;;-2.51;71.49
59391;BME280;53405;57.012;40.984;2023-02-17T14:29:51;100824.78;;;-2.61;71.59
59391;BME280;53405;57.012;40.984;2023-02-17T14:32:39;100806.53;;;-2.75;72.20
59391;BME280;53405;57.012;40.984;2023-02-17T14:35:27;100801.13;;;-2.88;73.65
59391;BME280;53405;57.012;40.984;2023-02-17T14:38:23;100824.38;;;-2.70;72.53
59391;BME280;53405;57.012;40.984;2023-02-17T14:41:12;100829.06;;;-2.79;73.31
59391;BME280;53405;57.012;40.984;2023-02-17T14:44:00;100810.38;;;-2.84;72.86
59391;BME280;53405;57.012;40.984;2023-02-17T14:46:47;100820.78;;;-3.04;73.79
59391;BME280;53405;57.012;40.984;2023-02-17T14:49:35;100820.78;;;-3.04;74.45
59391;BME280;53405;57.012;40.984;2023-02-17T14:52:23;100828.09;;;-3.14;74.54
59391;BME280;53405;57.012;40.984;2023-02-17T14:55:35;100836.75;;;-3.15;75.00
59391;BME280;53405;57.012;40.984;2023-02-17T14:58:25;100833.72;;;-3.06;74.17
59391;BME280;53405;57.012;40.984;2023-02-17T15:01:15;100833.94;;;-3.11;74.17
59391;BME280;53405;57.012;40.984;2023-02-17T15:04:03;100831.34;;;-3.30;74.39
59391;BME280;53405;57.012;40.984;2023-02-17T15:06:52;100835.06;;;-3.35;74.77
59391;BME280;53405;57.012;40.984;2023-02-17T15:09:43;100829.63;;;-3.29;74.70
59391;BME280;53405;57.012;40.984;2023-02-17T15:12:31;100808.59;;;-3.39;74.72
59391;BME280;53405;57.012;40.984;2023-02-17T15:15:19;100827.06;;;-3.29;74.83
59391;BME280;53405;57.012;40.984;2023-02-17T15:18:07;100823.94;;;-3.36;75.06
59391;BME280;53405;57.012;40.984;2023-02-17T15:20:55;100825.78;;;-3.39;75.58
59391;BME280;53405;57.012;40.984;2023-02-17T15:23:43;100829.28;;;-3.40;75.68
59391;BME280;53405;57.012;40.984;2023-02-17T15:26:31;100801.34;;;-3.50;75.07
59391;BME280;53405;57.012;40.984;2023-02-17T15:29:20;100823.34;;;-3.42;75.56
59391;BME280;53405;57.012;40.984;2023-02-17T15:32:15;100825.91;;;-3.42;75.83
59391;BME280;53405;57.012;40.984;2023-02-17T15:35:26;100820.19;;;-3.49;75.74
59391;BME280;53405;57.012;40.984;2023-02-17T15:38:13;100819.56;;;-3.54;75.91
59391;BME280;53405;57.012;40.984;2023-02-17T15:41:01;100815.66;;;-3.63;75.77
59391;BME280;53405;57.012;40.984;2023-02-17T15:43:51;100819.09;;;-3.63;75.80
59391;BME280;53405;57.012;40.984;2023-02-17T15:46:41;100802.34;;;-3.73;76.00
59391;BME280;53405;57.012;40.984;2023-02-17T15:49:31;100812.72;;;-3.74;75.95
59391;BME280;53405;57.012;40.984;2023-02-17T15:52:19;100794.44;;;-3.89;76.44
59391;BME280;53405;57.012;40.984;2023-02-17T15:55:07;100798.03;;;-3.93;76.45
59391;BME280;53405;57.012;40.984;2023-02-17T15:58:01;100793.94;;;-3.97;77.23
59391;BME280;53405;57.012;40.984;2023-02-17T16:00:51;100797.41;;;-3.98;76.81
59391;BME280;53405;57.012;40.984;2023-02-17T16:03:47;100778.44;;;-4.16;77.23
59391;BME280;53405;57.012;40.984;2023-02-17T16:06:35;100783.53;;;-4.14;77.50
59391;BME280;53405;57.012;40.984;2023-02-17T16:09:25;100785.56;;;-4.23;77.69
59391;BME280;53405;57.012;40.984;2023-02-17T16:12:18;100785.75;;;-4.27;77.53
59391;BME280;53405;57.012;40.984;2023-02-17T16:15:19;100771.56;;;-4.36;77.70